Time;durP1;ratioP1;P1;durP2;ratioP2;P2;SDS_P1;SDS_P2;PMS_P1;PMS_P2;Temp;Humidity;BMP_temperature;BMP_pressure;BME280_temperature;BME280_humidity;BME280_pressure;Samples;Min_cycle;Max_cycle;Signal;HPM_P1;HPM_P2
2021/07/22 00:00:12;;;;;;;10.55;7.72;;;19.80;91.60;;;;;;5095252;28;20040;-47
2021/07/22 00:02:37;;;;;;;9.88;7.10;;;19.80;91.50;;;;;;5056421;28;20581;-47
2021/07/22 00:05:08;;;;;;;10.75;7.63;;;19.80;91.60;;;;;;5082115;28;20107;-46
2021/07/22 00:07:34;;;;;;;10.52;7.38;;;19.70;91.60;;;;;;5094553;28;20150;-47
2021/07/22 00:10:00;;;;;;;9.38;6.68;;;19.80;91.60;;;;;;5075102;28;20502;-47
2021/07/22 00:12:25;;;;;;;9.43;6.53;;;19.80;91.50;;;;;;5091400;28;20070;-47
2021/07/22 00:14:51;;;;;;;9.95;7.45;;;19.80;91.20;;;;;;5070010;28;20038;-47
2021/07/22 00:17:17;;;;;;;8.65;7.07;;;19.80;91.40;;;;;;5095629;28;20028;-47
2021/07/22 00:19:43;;;;;;;13.68;7.43;;;19.80;91.50;;;;;;5033049;28;20166;-47
2021/07/22 00:22:08;;;;;;;11.57;6.70;;;19.80;91.60;;;;;;5109628;28;20092;-47
2021/07/22 00:24:36;;;;;;;9.38;6.95;;;19.80;91.50;;;;;;5111962;28;20028;-46
2021/07/22 00:27:02;;;;;;;12.90;7.00;;;19.70;91.60;;;;;;5115825;28;20084;-47
2021/07/22 00:29:30;;;;;;;10.02;7.10;;;19.60;91.70;;;;;;5115750;28;20574;-47
2021/07/22 00:31:57;;;;;;;12.60;7.32;;;19.60;91.80;;;;;;5114398;27;20038;-48
2021/07/22 00:34:23;;;;;;;8.95;6.72;;;19.60;91.60;;;;;;5115178;28;20110;-47
2021/07/22 00:36:49;;;;;;;8.45;7.03;;;19.60;91.50;;;;;;5114119;28;20232;-47
2021/07/22 00:39:16;;;;;;;8.60;6.53;;;19.70;91.50;;;;;;5114009;28;20031;-47
2021/07/22 00:41:42;;;;;;;11.85;7.88;;;19.70;91.40;;;;;;5121136;28;20035;-46
2021/07/22 00:44:08;;;;;;;11.23;7.70;;;19.80;91.50;;;;;;5116111;28;20506;-48
2021/07/22 00:46:34;;;;;;;12.45;7.88;;;19.60;91.80;;;;;;5115477;28;20035;-47
2021/07/22 00:48:59;;;;;;;10.70;7.53;;;19.50;91.90;;;;;;5112845;28;20405;-47
2021/07/22 00:51:25;;;;;;;11.18;8.20;;;19.60;91.80;;;;;;5114610;28;20032;-47
2021/07/22 00:53:51;;;;;;;11.60;7.60;;;19.60;91.60;;;;;;5094060;28;20425;-47
2021/07/22 00:56:17;;;;;;;11.10;7.57;;;19.70;91.50;;;;;;5113957;28;20035;-47
2021/07/22 00:58:42;;;;;;;12.68;9.90;;;19.70;91.50;;;;;;5119605;28;20080;-47
2021/07/22 01:01:08;;;;;;;42.80;35.55;;;19.60;91.30;;;;;;5114058;28;20055;-47
2021/07/22 01:03:38;;;;;;;50.00;42.65;;;19.60;91.30;;;;;;5116198;28;20036;-47
2021/07/22 01:06:04;;;;;;;38.83;34.58;;;19.50;91.60;;;;;;5045520;28;20139;-47
2021/07/22 01:08:30;;;;;;;21.15;18.40;;;19.40;91.70;;;;;;5093430;28;20114;-47
2021/07/22 01:10:56;;;;;;;18.80;14.77;;;19.30;91.90;;;;;;5121780;27;20019;-47
2021/07/22 01:13:21;;;;;;;15.32;11.43;;;19.20;92.00;;;;;;5116873;27;20027;-47
2021/07/22 01:15:47;;;;;;;12.02;10.82;;;19.00;92.30;;;;;;5110047;27;20036;-47
2021/07/22 01:18:13;;;;;;;16.70;13.35;;;19.00;92.60;;;;;;5117217;27;20038;-47
2021/07/22 01:20:39;;;;;;;13.00;10.07;;;19.00;92.60;;;;;;5119038;27;20118;-47
2021/07/22 01:23:05;;;;;;;11.50;9.48;;;19.00;92.50;;;;;;5098959;28;20039;-46
2021/07/22 01:25:30;;;;;;;13.23;9.48;;;19.20;92.30;;;;;;5107495;27;20027;-47
2021/07/22 01:27:58;;;;;;;10.93;8.93;;;19.30;92.10;;;;;;5119610;27;20084;-47
2021/07/22 01:30:24;;;;;;;12.77;8.48;;;19.30;92.00;;;;;;5096351;27;20036;-47
2021/07/22 01:32:52;;;;;;;11.70;8.65;;;19.40;91.80;;;;;;5120561;27;20030;-47
2021/07/22 01:35:18;;;;;;;9.38;7.90;;;19.40;91.70;;;;;;5117997;27;20043;-48
2021/07/22 01:37:44;;;;;;;11.88;9.13;;;19.50;91.70;;;;;;5118284;27;20031;-47
2021/07/22 01:40:12;;;;;;;9.88;8.45;;;19.50;91.50;;;;;;5089925;27;20082;-47
2021/07/22 01:42:38;;;;;;;11.45;7.72;;;19.50;91.50;;;;;;5082242;27;20461;-48
2021/07/22 01:45:06;;;;;;;9.98;8.02;;;19.40;91.20;;;;;;5096913;28;20122;-47
2021/07/22 01:47:34;;;;;;;9.10;7.53;;;19.40;91.70;;;;;;5086131;28;20043;-47
2021/07/22 01:50:00;;;;;;;11.05;8.05;;;19.40;91.70;;;;;;5082648;27;20043;-47
2021/07/22 01:52:26;;;;;;;11.13;8.68;;;19.40;91.30;;;;;;5116805;27;20486;-46
2021/07/22 01:54:52;;;;;;;12.10;7.05;;;19.40;91.60;;;;;;5118033;27;20028;-47
2021/07/22 01:57:17;;;;;;;11.23;7.93;;;19.30;91.70;;;;;;5120452;27;20520;-46
2021/07/22 01:59:43;;;;;;;9.88;7.35;;;19.40;91.40;;;;;;5118788;27;20069;-47
2021/07/22 02:02:10;;;;;;;9.43;7.70;;;19.20;91.70;;;;;;5120216;27;20035;-48
2021/07/22 02:04:38;;;;;;;9.32;7.60;;;19.10;91.90;;;;;;5118525;27;20034;-47
2021/07/22 02:07:04;;;;;;;9.52;7.55;;;18.90;91.80;;;;;;5114226;27;20040;-47
2021/07/22 02:09:30;;;;;;;13.27;8.43;;;19.20;91.90;;;;;;5120589;27;20028;-47
2021/07/22 02:11:57;;;;;;;9.73;8.02;;;19.10;92.00;;;;;;5120106;27;20027;-47
2021/07/22 02:14:24;;;;;;;10.23;8.50;;;18.90;92.10;;;;;;5121870;27;20385;-47
2021/07/22 02:16:51;;;;;;;11.15;7.63;;;18.90;92.30;;;;;;5118529;27;20031;-47
2021/07/22 02:19:17;;;;;;;11.60;7.55;;;18.90;92.20;;;;;;5120038;27;20043;-47
2021/07/22 02:21:44;;;;;;;10.32;7.20;;;18.80;92.20;;;;;;5097842;28;20031;-47
2021/07/22 02:24:15;;;;;;;8.57;7.05;;;18.70;92.30;;;;;;5122429;27;20072;-46
2021/07/22 02:26:41;;;;;;;8.10;7.05;;;18.80;92.30;;;;;;5120523;27;20410;-46
2021/07/22 02:29:07;;;;;;;8.30;6.80;;;18.80;92.30;;;;;;5116613;27;20363;-47
2021/07/22 02:31:36;;;;;;;8.45;6.80;;;18.70;92.30;;;;;;5100426;28;20516;-47
2021/07/22 02:34:02;;;;;;;9.80;6.82;;;18.60;92.50;;;;;;5116876;27;20031;-46
2021/07/22 02:36:28;;;;;;;9.48;7.07;;;18.70;92.40;;;;;;5115858;27;20106;-48
2021/07/22 02:38:54;;;;;;;9.52;7.07;;;18.70;92.20;;;;;;5096944;27;20031;-47
2021/07/22 02:41:20;;;;;;;10.80;7.60;;;18.80;92.30;;;;;;5100161;28;20494;-47
2021/07/22 02:43:46;;;;;;;10.55;7.10;;;19.00;92.00;;;;;;5117436;27;20020;-48
2021/07/22 02:46:12;;;;;;;7.70;6.88;;;19.00;92.10;;;;;;5096437;27;20409;-47
2021/07/22 02:48:38;;;;;;;10.90;7.28;;;19.00;91.80;;;;;;5116815;27;20043;-47
2021/07/22 02:51:06;;;;;;;9.40;6.60;;;19.00;91.80;;;;;;5119768;27;20106;-47
2021/07/22 02:53:31;;;;;;;8.88;6.40;;;19.00;91.60;;;;;;5117158;27;20019;-47
2021/07/22 02:55:59;;;;;;;9.43;7.07;;;18.80;91.90;;;;;;5120569;27;20058;-47
2021/07/22 02:58:25;;;;;;;11.25;6.78;;;18.80;92.20;;;;;;5125978;27;20062;-47
2021/07/22 03:00:51;;;;;;;11.27;7.10;;;18.80;92.20;;;;;;5119678;27;20121;-47
2021/07/22 03:03:17;;;;;;;9.48;7.47;;;18.60;92.10;;;;;;5117205;27;20039;-47
2021/07/22 03:05:43;;;;;;;10.48;7.63;;;18.60;92.40;;;;;;5115379;27;20360;-47
2021/07/22 03:08:08;;;;;;;11.75;7.10;;;18.60;92.40;;;;;;5070783;28;20124;-47
2021/07/22 03:10:34;;;;;;;10.02;7.05;;;18.50;92.20;;;;;;5117237;27;20027;-46
2021/07/22 03:13:00;;;;;;;10.88;7.82;;;18.50;92.60;;;;;;5095788;27;20227;-47
2021/07/22 03:15:26;;;;;;;9.57;7.70;;;18.60;92.30;;;;;;5090798;28;20039;-47
2021/07/22 03:17:51;;;;;;;9.52;7.38;;;18.60;92.10;;;;;;5040951;28;20048;-47
2021/07/22 03:20:17;;;;;;;27.75;20.33;;;18.50;92.40;;;;;;5091340;28;20495;-46
2021/07/22 03:22:43;;;;;;;10.60;8.65;;;18.40;92.70;;;;;;5050081;28;20088;-47
2021/07/22 03:25:10;;;;;;;10.05;7.18;;;18.30;92.60;;;;;;4997677;28;20043;-47
2021/07/22 03:27:35;;;;;;;10.30;7.32;;;18.40;92.60;;;;;;5090825;28;20031;-47
2021/07/22 03:30:02;;;;;;;9.77;7.28;;;18.50;92.50;;;;;;5090586;28;20249;-47
2021/07/22 03:32:28;;;;;;;11.77;7.47;;;18.60;92.40;;;;;;5090443;28;20070;-48
2021/07/22 03:34:53;;;;;;;11.65;7.40;;;18.70;92.10;;;;;;5057574;28;20067;-47
2021/07/22 03:37:19;;;;;;;9.40;7.70;;;18.60;92.10;;;;;;5074226;28;20036;-47
2021/07/22 03:39:45;;;;;;;11.40;7.93;;;18.60;92.30;;;;;;5017569;28;20300;-47
2021/07/22 03:42:11;;;;;;;8.35;7.30;;;18.50;92.40;;;;;;5090169;28;20044;-47
2021/07/22 03:44:37;;;;;;;10.57;7.97;;;18.50;92.50;;;;;;5057752;28;20047;-47
2021/07/22 03:47:03;;;;;;;8.88;7.22;;;18.40;92.50;;;;;;5073117;28;20039;-46
2021/07/22 03:49:29;;;;;;;8.30;7.13;;;18.50;92.50;;;;;;5098294;28;20051;-47
2021/07/22 03:51:55;;;;;;;11.77;7.38;;;18.40;92.40;;;;;;5116109;27;20031;-47
2021/07/22 03:54:21;;;;;;;9.63;7.13;;;18.40;92.60;;;;;;5120927;27;20020;-47
2021/07/22 03:56:47;;;;;;;12.20;7.10;;;18.30;92.70;;;;;;5078543;28;20047;-46
2021/07/22 03:59:17;;;;;;;12.90;7.25;;;18.30;92.80;;;;;;5126186;27;20639;-47
2021/07/22 04:01:43;;;;;;;10.57;6.72;;;18.20;92.80;;;;;;5114032;27;20024;-47
2021/07/22 04:04:09;;;;;;;12.25;7.57;;;18.20;92.90;;;;;;5116056;27;20027;-47
2021/07/22 04:06:40;;;;;;;10.98;7.07;;;18.30;93.00;;;;;;5119250;28;20024;-47
2021/07/22 04:09:06;;;;;;;8.93;6.85;;;18.30;93.00;;;;;;5115695;27;20023;-47
2021/07/22 04:11:33;;;;;;;11.18;7.75;;;18.20;92.90;;;;;;5080114;28;20352;-48
2021/07/22 04:13:59;;;;;;;10.70;7.13;;;18.30;93.00;;;;;;5119229;28;20335;-47
2021/07/22 04:16:24;;;;;;;13.88;8.13;;;18.30;93.10;;;;;;5114294;28;20110;-47
2021/07/22 04:18:50;;;;;;;11.80;7.88;;;18.30;93.10;;;;;;5118075;28;20032;-46
2021/07/22 04:21:16;;;;;;;8.82;6.65;;;18.40;93.20;;;;;;5099672;28;20486;-47
2021/07/22 04:23:42;;;;;;;8.52;6.97;;;18.40;92.90;;;;;;5110586;28;20032;-47
2021/07/22 04:26:14;;;;;;;9.45;7.18;;;18.40;93.10;;;;;;5115532;28;20039;-47
2021/07/22 04:28:40;;;;;;;;;;;18.40;93.10;;;;;;5114284;28;20077;-47
2021/07/22 04:31:05;;;;;;;13.27;6.95;;;18.40;93.10;;;;;;5117327;28;19912;-48
2021/07/22 04:33:31;;;;;;;9.38;6.65;;;18.50;93.20;;;;;;5120899;28;20047;-48
2021/07/22 04:35:57;;;;;;;9.27;6.90;;;18.50;93.10;;;;;;5078236;28;20047;-47
2021/07/22 04:38:23;;;;;;;9.55;6.97;;;18.60;93.10;;;;;;5122309;28;20106;-47
2021/07/22 04:40:48;;;;;;;12.35;7.38;;;18.70;93.20;;;;;;5102707;28;20130;-47
2021/07/22 04:43:14;;;;;;;10.13;7.63;;;18.60;93.20;;;;;;5123734;28;20473;-46
2021/07/22 04:45:40;;;;;;;10.38;7.50;;;18.70;93.30;;;;;;5124839;27;20525;-47
2021/07/22 04:48:06;;;;;;;9.88;6.32;;;18.80;93.40;;;;;;5121148;27;20100;-46
2021/07/22 04:50:31;;;;;;;11.75;7.22;;;18.90;93.00;;;;;;5122887;27;20485;-48
2021/07/22 04:52:59;;;;;;;8.82;6.82;;;19.00;92.90;;;;;;5128240;27;20038;-46
2021/07/22 04:55:25;;;;;;;10.90;7.47;;;19.00;93.10;;;;;;5124678;27;20042;-47
2021/07/22 04:58:00;;;;;;;12.43;7.07;;;19.00;93.20;;;;;;5120587;27;20031;-48
2021/07/22 05:00:26;;;;;;;10.15;6.93;;;19.10;93.20;;;;;;5117141;27;20035;-48
2021/07/22 05:02:59;;;;;;;10.27;6.85;;;19.10;93.20;;;;;;5118071;27;20058;-46
2021/07/22 05:05:28;;;;;;;10.63;7.20;;;19.10;93.40;;;;;;5119320;27;20034;-47
2021/07/22 05:07:54;;;;;;;10.88;7.38;;;19.20;93.10;;;;;;5108697;28;20040;-47
2021/07/22 05:10:20;;;;;;;12.02;8.00;;;19.20;93.00;;;;;;5118714;27;20024;-47
2021/07/22 05:12:46;;;;;;;9.60;6.63;;;19.50;93.20;;;;;;5116823;27;20359;-46
2021/07/22 05:15:12;;;;;;;9.93;6.75;;;19.50;92.70;;;;;;5095951;28;20117;-47
2021/07/22 05:17:39;;;;;;;10.55;7.68;;;19.60;92.80;;;;;;5121597;27;20030;-47
2021/07/22 05:20:05;;;;;;;10.52;7.57;;;19.70;92.50;;;;;;5120546;27;20034;-47
2021/07/22 05:22:32;;;;;;;10.18;6.53;;;19.90;92.40;;;;;;5096712;28;20406;-47
2021/07/22 05:24:58;;;;;;;8.80;7.15;;;19.80;92.20;;;;;;5101664;27;20039;-48
2021/07/22 05:27:24;;;;;;;9.48;7.32;;;19.90;92.20;;;;;;5086187;27;20027;-46
2021/07/22 05:29:50;;;;;;;10.48;7.07;;;19.80;92.30;;;;;;5120125;27;20072;-49
2021/07/22 05:32:16;;;;;;;9.77;7.50;;;19.90;92.30;;;;;;5071997;28;20032;-48
2021/07/22 05:34:42;;;;;;;10.10;7.50;;;20.00;92.40;;;;;;5071922;28;20664;-47
2021/07/22 05:37:08;;;;;;;10.63;7.50;;;20.00;92.20;;;;;;5071609;28;20041;-47
2021/07/22 05:39:34;;;;;;;10.35;6.80;;;20.10;91.90;;;;;;5075132;28;20059;-47
2021/07/22 05:42:00;;;;;;;8.77;7.60;;;20.10;91.70;;;;;;5078077;28;20041;-46
2021/07/22 05:44:26;;;;;;;14.85;7.40;;;20.10;92.10;;;;;;5079039;28;20051;-47
2021/07/22 05:46:52;;;;;;;8.93;7.70;;;20.20;91.90;;;;;;5076360;28;20079;-48
2021/07/22 05:49:17;;;;;;;9.63;7.07;;;20.30;92.00;;;;;;5074782;28;20089;-46
2021/07/22 05:51:43;;;;;;;9.77;7.30;;;20.30;91.60;;;;;;5055907;28;20043;-46
2021/07/22 05:54:12;;;;;;;9.32;7.25;;;20.30;91.70;;;;;;5079458;28;20066;-47
2021/07/22 05:56:38;;;;;;;10.35;7.43;;;20.50;91.20;;;;;;5080875;28;20020;-46
2021/07/22 05:59:03;;;;;;;13.00;8.27;;;20.50;91.40;;;;;;5086792;28;20106;-46
2021/07/22 06:01:29;;;;;;;12.23;7.68;;;20.60;91.80;;;;;;5084182;28;20024;-46
2021/07/22 06:03:55;;;;;;;13.32;6.72;;;20.60;91.60;;;;;;5081082;28;20471;-47
2021/07/22 06:06:21;;;;;;;11.65;7.25;;;20.50;91.10;;;;;;5099024;27;20032;-47
2021/07/22 06:08:48;;;;;;;8.70;5.93;;;20.70;91.00;;;;;;5119689;27;20410;-46
2021/07/22 06:11:14;;;;;;;9.55;7.20;;;20.50;91.00;;;;;;5120554;27;20382;-47
2021/07/22 06:13:41;;;;;;;8.13;6.38;;;20.70;91.30;;;;;;5117378;27;20027;-46
2021/07/22 06:16:14;;;;;;;10.13;6.93;;;20.60;90.90;;;;;;5118068;27;20035;-46
2021/07/22 06:18:41;;;;;;;9.82;7.15;;;20.70;90.90;;;;;;5108092;27;20038;-47
2021/07/22 06:21:10;;;;;;;10.55;7.30;;;20.80;91.00;;;;;;5127617;27;20031;-46
2021/07/22 06:23:36;;;;;;;8.23;6.32;;;21.00;91.10;;;;;;5122480;27;20031;-46
2021/07/22 06:26:02;;;;;;;11.13;6.90;;;21.10;90.30;;;;;;5104558;27;20038;-46
2021/07/22 06:28:28;;;;;;;12.98;7.70;;;21.20;91.00;;;;;;5121080;27;20377;-47
2021/07/22 06:30:54;;;;;;;9.55;6.97;;;21.30;90.50;;;;;;5108855;27;20039;-46
2021/07/22 06:33:21;;;;;;;41.03;10.13;;;21.50;90.70;;;;;;5118939;27;20027;-46
2021/07/22 06:35:46;;;;;;;10.98;7.45;;;21.50;90.30;;;;;;5119031;27;20407;-46
2021/07/22 06:38:13;;;;;;;11.02;7.20;;;21.60;90.10;;;;;;5119626;27;20112;-47
2021/07/22 06:40:40;;;;;;;9.57;6.72;;;21.80;90.00;;;;;;5095368;28;20043;-46
2021/07/22 06:43:10;;;;;;;13.25;7.95;;;22.00;88.80;;;;;;5117882;27;20499;-46
2021/07/22 06:45:38;;;;;;;11.25;6.95;;;22.00;88.80;;;;;;5123827;27;20045;-48
2021/07/22 06:48:04;;;;;;;9.35;6.75;;;22.20;89.70;;;;;;5122099;27;20038;-46
2021/07/22 06:50:30;;;;;;;11.40;7.18;;;22.30;89.10;;;;;;5123372;27;20035;-46
2021/07/22 06:52:56;;;;;;;11.52;7.15;;;22.50;88.60;;;;;;5098909;27;20390;-46
2021/07/22 06:55:22;;;;;;;9.23;6.57;;;22.60;88.30;;;;;;5091400;28;20035;-47
2021/07/22 06:57:48;;;;;;;11.95;7.13;;;22.50;87.30;;;;;;5095173;27;20126;-47
2021/07/22 07:00:14;;;;;;;9.77;6.53;;;22.60;86.80;;;;;;5099249;27;20043;-46
2021/07/22 07:02:41;;;;;;;10.75;6.38;;;22.70;86.50;;;;;;5116403;27;20068;-49
2021/07/22 07:05:07;;;;;;;8.98;6.78;;;22.80;87.80;;;;;;5123730;27;20449;-47
2021/07/22 07:07:33;;;;;;;12.70;8.73;;;22.90;86.50;;;;;;5096456;28;20054;-46
2021/07/22 07:09:59;;;;;;;11.45;7.30;;;22.90;86.80;;;;;;5116585;27;20058;-47
2021/07/22 07:12:25;;;;;;;8.85;7.07;;;22.80;86.50;;;;;;5095115;27;20071;-48
2021/07/22 07:14:51;;;;;;;9.70;6.55;;;23.00;86.40;;;;;;5096740;28;20046;-47
2021/07/22 07:17:16;;;;;;;10.38;7.25;;;23.10;87.70;;;;;;5053506;27;20398;-47
2021/07/22 07:19:42;;;;;;;9.38;6.55;;;23.20;85.30;;;;;;5121059;27;20039;-47
2021/07/22 07:22:08;;;;;;;9.75;7.20;;;23.40;87.20;;;;;;5121935;27;20102;-46
2021/07/22 07:24:34;;;;;;;10.32;6.32;;;23.70;88.10;;;;;;5124061;27;20024;-49
2021/07/22 07:26:59;;;;;;;9.73;6.53;;;23.60;85.20;;;;;;5119326;27;20019;-47
2021/07/22 07:29:25;;;;;;;8.55;6.22;;;23.70;86.10;;;;;;5092173;28;20461;-48
2021/07/22 07:31:51;;;;;;;8.80;7.20;;;23.70;84.30;;;;;;5122033;27;20023;-47
2021/07/22 07:34:17;;;;;;;8.18;6.45;;;23.80;85.10;;;;;;5101135;27;20031;-46
2021/07/22 07:36:45;;;;;;;8.80;6.07;;;23.90;84.90;;;;;;5098977;27;20031;-46
2021/07/22 07:39:13;;;;;;;8.77;6.40;;;23.70;83.10;;;;;;5119491;27;20043;-48
2021/07/22 07:41:39;;;;;;;12.05;7.22;;;23.90;84.40;;;;;;5114183;27;20071;-47
2021/07/22 07:44:05;;;;;;;10.55;7.10;;;23.90;84.90;;;;;;5095723;28;20074;-48
2021/07/22 07:46:31;;;;;;;10.70;6.75;;;24.20;85.00;;;;;;5118718;27;20049;-47
2021/07/22 07:48:57;;;;;;;9.88;6.38;;;24.40;83.10;;;;;;5118555;27;20023;-46
2021/07/22 07:51:23;;;;;;;10.23;6.47;;;24.40;83.60;;;;;;5115317;27;20016;-46
2021/07/22 07:53:50;;;;;;;13.93;7.88;;;24.50;83.30;;;;;;5118226;27;20358;-49
2021/07/22 07:56:16;;;;;;;12.70;7.15;;;24.60;83.50;;;;;;5118850;27;20062;-47
2021/07/22 07:58:42;;;;;;;12.40;6.60;;;24.50;83.10;;;;;;5116512;27;20463;-46
2021/07/22 08:01:07;;;;;;;12.57;6.75;;;24.70;83.70;;;;;;5100546;28;20092;-46
2021/07/22 08:03:33;;;;;;;12.55;6.75;;;24.90;83.30;;;;;;5121622;27;20034;-47
2021/07/22 08:05:59;;;;;;;14.07;6.75;;;25.00;83.00;;;;;;5110463;28;20502;-47
2021/07/22 08:08:25;;;;;;;12.57;6.65;;;25.00;82.60;;;;;;5094924;28;20175;-46
2021/07/22 08:10:53;;;;;;;11.75;7.50;;;25.10;82.50;;;;;;5101733;28;20076;-47
2021/07/22 08:13:19;;;;;;;12.88;7.75;;;25.20;83.60;;;;;;5098344;28;20096;-47
2021/07/22 08:15:44;;;;;;;18.02;7.80;;;25.40;84.20;;;;;;5095102;28;20031;-46
2021/07/22 08:18:11;;;;;;;12.82;7.25;;;25.40;84.00;;;;;;5115806;28;20098;-47
2021/07/22 08:20:37;;;;;;;13.40;7.13;;;25.60;82.80;;;;;;5098934;28;20154;-48
2021/07/22 08:23:03;;;;;;;9.35;6.30;;;25.70;80.70;;;;;;5120671;27;20110;-48
2021/07/22 08:25:29;;;;;;;10.60;6.93;;;25.60;80.90;;;;;;5104952;28;20046;-49
2021/07/22 08:27:54;;;;;;;9.15;6.03;;;25.90;81.90;;;;;;5099918;27;20389;-48
2021/07/22 08:30:20;;;;;;;10.32;6.78;;;25.80;80.30;;;;;;5120186;27;20020;-48
2021/07/22 08:32:47;;;;;;;12.90;6.55;;;26.00;82.00;;;;;;5121344;27;20048;-49
2021/07/22 08:35:13;;;;;;;9.45;5.93;;;26.20;81.30;;;;;;5117998;27;20023;-48
2021/07/22 08:37:39;;;;;;;13.52;6.38;;;26.30;79.70;;;;;;5100629;28;20475;-49
2021/07/22 08:40:05;;;;;;;9.38;4.57;;;26.40;78.80;;;;;;5117954;27;20043;-49
2021/07/22 08:42:35;;;;;;;10.25;6.13;;;26.30;77.50;;;;;;5071101;27;20027;-48
2021/07/22 08:45:03;;;;;;;15.80;6.68;;;;;;;;;;5117231;27;20066;-48
2021/07/22 08:47:29;;;;;;;9.30;6.03;;;;;;;;;;5116805;28;20047;-48
2021/07/22 08:49:55;;;;;;;9.57;5.72;;;;;;;;;;5117934;27;20534;-48
2021/07/22 08:52:21;;;;;;;13.57;5.97;;;27.30;88.60;;;;;;5112351;27;20373;-48
2021/07/22 08:54:47;;;;;;;10.73;4.97;;;27.40;89.30;;;;;;5100062;28;20038;-49
2021/07/22 08:57:14;;;;;;;10.57;4.95;;;27.60;95.70;;;;;;5117562;27;20051;-48
2021/07/22 08:59:40;;;;;;;7.93;4.82;;;27.40;77.50;;;;;;5119336;27;20035;-49
2021/07/22 09:02:06;;;;;;;9.02;4.85;;;27.50;76.60;;;;;;5101179;27;20035;-49
2021/07/22 09:04:53;;;;;;;10.18;5.47;;;27.50;80.80;;;;;;5117514;27;20028;-49
2021/07/22 09:07:19;;;;;;;7.93;4.93;;;27.70;75.60;;;;;;5119686;27;20039;-48
2021/07/22 09:10:05;;;;;;;6.55;4.47;;;27.40;76.00;;;;;;5122008;27;20062;-48
2021/07/22 09:12:48;;;;;;;6.78;4.18;;;27.40;74.60;;;;;;5123951;27;20431;-49
2021/07/22 09:15:28;;;;;;;10.27;5.15;;;27.50;73.60;;;;;;5125958;27;20031;-48
2021/07/22 09:17:55;;;;;;;12.40;4.82;;;27.90;83.90;;;;;;5124617;27;20039;-49
2021/07/22 09:20:26;;;;;;;8.57;4.47;;;27.90;73.80;;;;;;5122294;27;20031;-48
2021/07/22 09:22:52;;;;;;;9.60;4.32;;;27.90;74.50;;;;;;5099078;28;20391;-50
2021/07/22 09:25:19;;;;;;;8.77;4.93;;;;;;;;;;5120914;27;20057;-48
2021/07/22 09:27:45;;;;;;;12.38;5.28;;;28.70;74.10;;;;;;5124463;27;20024;-49
2021/07/22 09:30:18;;;;;;;6.72;4.32;;;;;;;;;;5115279;27;20068;-49
2021/07/22 09:32:49;;;;;;;14.18;4.82;;;29.10;70.20;;;;;;5122432;27;20027;-48
2021/07/22 09:35:17;;;;;;;12.20;4.50;;;29.20;71.20;;;;;;5119783;27;20011;-47
2021/07/22 09:37:45;;;;;;;5.85;4.40;;;29.40;70.30;;;;;;5120091;27;20103;-48
2021/07/22 09:40:24;;;;;;;8.80;4.88;;;29.30;70.90;;;;;;5121113;27;20086;-48
2021/07/22 09:42:50;;;;;;;7.63;4.68;;;29.30;69.30;;;;;;5101712;28;20039;-48
2021/07/22 09:45:20;;;;;;;10.73;4.63;;;29.50;69.10;;;;;;5117723;27;20027;-48
2021/07/22 09:47:47;;;;;;;7.20;4.25;;;29.60;69.30;;;;;;5118302;27;20070;-49
2021/07/22 09:50:17;;;;;;;5.78;3.50;;;29.60;70.00;;;;;;5069502;28;20050;-48
2021/07/22 09:52:45;;;;;;;14.60;5.82;;;30.10;69.20;;;;;;5072959;28;20037;-49
2021/07/22 09:55:27;;;;;;;9.10;4.45;;;29.70;68.40;;;;;;5081181;28;20033;-48
2021/07/22 09:57:55;;;;;;;4.05;3.55;;;29.50;67.20;;;;;;5080752;28;20063;-48
2021/07/22 10:00:22;;;;;;;5.13;3.83;;;29.60;68.60;;;;;;5076298;28;20491;-48
2021/07/22 10:02:50;;;;;;;6.70;4.28;;;29.80;68.80;;;;;;5054092;28;20131;-52
2021/07/22 10:05:25;;;;;;;11.57;7.78;;;30.10;67.60;;;;;;5082233;28;20031;-49
2021/07/22 10:07:55;;;;;;;6.20;4.00;;;30.50;73.90;;;;;;5036259;28;20041;-51
2021/07/22 10:10:23;;;;;;;7.57;3.90;;;30.40;66.90;;;;;;5030463;28;20114;-48
2021/07/22 10:13:01;;;;;;;5.38;3.83;;;30.40;65.90;;;;;;5081630;28;20513;-48
2021/07/22 10:15:29;;;;;;;6.90;3.90;;;;;;;;;;5076845;28;20020;-48
2021/07/22 10:17:59;;;;;;;5.88;4.10;;;30.70;65.70;;;;;;5037757;28;20033;-48
2021/07/22 10:20:30;;;;;;;5.80;3.40;;;30.40;65.50;;;;;;5039683;28;20487;-48
2021/07/22 10:22:57;;;;;;;4.25;3.40;;;30.40;64.30;;;;;;5052109;28;20570;-48
2021/07/22 10:25:23;;;;;;;10.88;3.63;;;30.40;63.40;;;;;;5069301;28;20032;-48
2021/07/22 10:27:52;;;;;;;7.07;3.65;;;30.60;64.70;;;;;;5015759;28;20395;-48
2021/07/22 10:30:19;;;;;;;7.45;3.45;;;30.90;64.60;;;;;;5100889;28;20084;-47
2021/07/22 10:32:59;;;;;;;5.40;3.65;;;30.60;64.00;;;;;;5092551;28;20051;-49
2021/07/22 10:35:31;;;;;;;6.38;4.25;;;30.70;67.10;;;;;;5091380;28;20032;-47
2021/07/22 10:38:27;;;;;;;6.20;3.50;;;30.80;62.20;;;;;;5097091;28;20036;-47
2021/07/22 10:40:57;;;;;;;8.73;3.78;;;31.10;63.50;;;;;;5098691;28;20392;-47
2021/07/22 10:43:46;;;;;;;4.20;3.78;;;31.40;63.10;;;;;;5028012;28;20353;-47
2021/07/22 10:46:17;;;;;;;7.95;3.58;;;31.30;62.30;;;;;;5018563;28;20045;-47
2021/07/22 10:48:44;;;;;;;6.60;3.60;;;31.40;64.30;;;;;;5060316;28;20120;-46
2021/07/22 10:51:13;;;;;;;4.30;3.22;;;31.20;63.90;;;;;;5048800;28;20051;-46
2021/07/22 10:53:41;;;;;;;7.80;3.70;;;;;;;;;;5036618;28;20059;-47
2021/07/22 10:56:13;;;;;;;4.10;3.13;;;31.10;62.60;;;;;;5037788;28;20124;-46
2021/07/22 10:58:39;;;;;;;4.18;2.72;;;31.10;62.80;;;;;;5073107;28;20047;-47
2021/07/22 11:01:07;;;;;;;5.53;3.05;;;31.60;60.50;;;;;;5076164;28;20040;-47
2021/07/22 11:03:38;;;;;;;5.82;3.60;;;31.90;61.10;;;;;;5073105;28;20040;-47
2021/07/22 11:06:04;;;;;;;5.47;3.50;;;;;;;;;;5074756;28;20028;-46
2021/07/22 11:08:32;;;;;;;6.82;2.78;;;31.70;83.00;;;;;;5076554;28;20128;-47
2021/07/22 11:11:08;;;;;;;3.72;3.00;;;31.70;62.00;;;;;;5076239;28;20040;-46
2021/07/22 11:13:41;;;;;;;4.03;3.00;;;;;;;;;;5083022;28;20055;-47
2021/07/22 11:16:28;;;;;;;4.35;3.38;;;32.20;89.10;;;;;;5116839;27;20031;-47
2021/07/22 11:19:19;;;;;;;3.58;3.08;;;32.50;90.40;;;;;;5123214;27;20046;-47
2021/07/22 11:21:49;;;;;;;5.85;2.90;;;32.60;61.40;;;;;;5120119;27;20110;-47
2021/07/22 11:24:20;;;;;;;4.85;3.10;;;32.30;61.00;;;;;;5118540;27;20032;-47
2021/07/22 11:26:51;;;;;;;7.57;3.55;;;32.40;60.00;;;;;;5120672;27;20033;-47
2021/07/22 11:29:18;;;;;;;7.80;3.00;;;32.20;60.00;;;;;;5102699;27;20032;-46
2021/07/22 11:31:45;;;;;;;6.38;2.90;;;32.50;60.80;;;;;;5121844;27;20035;-47
2021/07/22 11:34:12;;;;;;;4.72;3.38;;;32.90;59.20;;;;;;5087678;28;20426;-47
2021/07/22 11:36:38;;;;;;;20.40;3.50;;;33.10;61.80;;;;;;5121104;27;20039;-47
2021/07/22 11:39:05;;;;;;;6.43;3.38;;;32.90;59.60;;;;;;5117616;27;20180;-47
2021/07/22 11:41:31;;;;;;;11.85;3.35;;;32.90;60.20;;;;;;5123510;27;20027;-48
2021/07/22 11:44:02;;;;;;;3.80;2.90;;;;;;;;;;5122914;27;20042;-47
2021/07/22 11:46:45;;;;;;;4.90;2.47;;;33.40;57.30;;;;;;5119789;27;20367;-47
2021/07/22 11:49:12;;;;;;;5.45;2.90;;;;;;;;;;5112295;28;20043;-46
2021/07/22 11:51:39;;;;;;;17.33;4.13;;;33.50;58.00;;;;;;5075085;28;20044;-47
2021/07/22 11:54:06;;;;;;;7.60;3.40;;;;;;;;;;5052760;28;20047;-47
2021/07/22 11:56:33;;;;;;;4.22;3.20;;;33.40;59.10;;;;;;5082311;28;20040;-48
2021/07/22 11:59:04;;;;;;;5.35;3.53;;;33.50;58.90;;;;;;5046075;28;20031;-49
2021/07/22 12:01:32;;;;;;;3.50;3.20;;;33.30;57.20;;;;;;5050085;28;20071;-49
2021/07/22 12:03:58;;;;;;;4.43;3.25;;;32.90;58.70;;;;;;5084192;28;20071;-43
2021/07/22 12:06:29;;;;;;;3.30;3.00;;;33.40;60.00;;;;;;5035313;28;20087;-45
2021/07/22 12:09:06;;;;;;;4.20;3.00;;;32.90;58.00;;;;;;5075675;28;20383;-48
2021/07/22 12:11:52;;;;;;;4.50;3.08;;;33.10;56.30;;;;;;5074396;28;20522;-48
2021/07/22 12:14:37;;;;;;;7.38;2.80;;;33.30;61.10;;;;;;5076113;28;20016;-49
2021/07/22 12:17:05;;;;;;;5.00;3.30;;;;;;;;;;5074447;28;20051;-48
2021/07/22 12:19:32;;;;;;;3.90;2.92;;;33.60;57.90;;;;;;5073870;28;20522;-50
2021/07/22 12:22:22;;;;;;;4.50;3.03;;;33.80;59.70;;;;;;5081056;28;20052;-49
2021/07/22 12:24:49;;;;;;;4.10;2.92;;;;;;;;;;5109286;28;20051;-49
2021/07/22 12:27:33;;;;;;;3.60;2.75;;;33.70;57.10;;;;;;5084536;28;20065;-47
2021/07/22 12:30:01;;;;;;;4.57;3.03;;;33.30;56.60;;;;;;5121657;28;20032;-48
2021/07/22 12:32:29;;;;;;;3.70;2.95;;;33.50;54.90;;;;;;5118854;27;20027;-46
2021/07/22 12:34:56;;;;;;;4.30;3.10;;;33.70;56.20;;;;;;5119196;28;20031;-49
2021/07/22 12:37:55;;;;;;;3.97;3.05;;;33.70;54.90;;;;;;5098525;28;20065;-51
2021/07/22 12:40:40;;;;;;;4.88;3.08;;;;;;;;;;5116925;28;20478;-48
2021/07/22 12:43:10;;;;;;;5.45;3.10;;;34.40;55.70;;;;;;5120954;28;20058;-48
2021/07/22 12:45:36;;;;;;;5.03;3.00;;;33.90;55.40;;;;;;5118712;28;20605;-48
2021/07/22 12:48:03;;;;;;;4.25;2.70;;;33.40;55.50;;;;;;5120794;27;20039;-47
2021/07/22 12:50:43;;;;;;;5.20;2.60;;;34.00;55.90;;;;;;5122490;28;20610;-48